Time;durP1;ratioP1;P1;durP2;ratioP2;P2;SDS_P1;SDS_P2;PMS_P1;PMS_P2;Temp;Humidity;BMP_temperature;BMP_pressure;BME280_temperature;BME280_humidity;BME280_pressure;Samples;Min_cycle;Max_cycle;Signal;HPM_P1;HPM_P2
2024/01/21 00:01:56;;;;;;;1.17;1.17;;;;;;;-11.39;100.00;99663.38;4993643;28;20508;-86
2024/01/21 00:04:23;;;;;;;1.40;1.30;;;;;;;-11.38;100.00;99672.03;4959439;28;20061;-86
2024/01/21 00:06:51;;;;;;;1.35;1.25;;;;;;;-11.41;100.00;99678.25;4975448;28;20165;-86
2024/01/21 00:09:18;;;;;;;1.13;1.13;;;;;;;-11.47;100.00;99675.97;4995971;28;20054;-86
2024/01/21 00:11:45;;;;;;;1.38;1.27;;;;;;;-11.44;100.00;99670.63;4979599;28;20070;-86
2024/01/21 00:14:13;;;;;;;1.10;1.10;;;;;;;-11.43;100.00;99682.69;4978784;28;20057;-86
2024/01/21 00:16:40;;;;;;;0.98;0.98;;;;;;;-11.46;100.00;99680.28;4978968;28;20058;-86
2024/01/21 00:19:07;;;;;;;1.02;1.02;;;;;;;-11.57;100.00;99664.41;4996699;28;20047;-86
2024/01/21 00:21:35;;;;;;;1.00;1.00;;;;;;;-11.57;100.00;99690.47;4996800;28;20057;-86
2024/01/21 00:24:02;;;;;;;1.48;1.38;;;;;;;-11.65;100.00;99697.88;4997198;28;20107;-86
2024/01/21 00:26:30;;;;;;;1.52;1.42;;;;;;;-11.63;100.00;99702.06;4979109;28;20047;-88
2024/01/21 00:29:00;;;;;;;1.42;1.33;;;;;;;-11.63;100.00;99701.25;4996720;28;20046;-88
2024/01/21 00:31:28;;;;;;;1.40;1.30;;;;;;;-11.76;100.00;99700.25;4978735;28;20074;-88
2024/01/21 00:33:55;;;;;;;1.48;1.38;;;;;;;-11.81;100.00;99703.13;4996281;28;20478;-87
2024/01/21 00:36:23;;;;;;;1.23;1.20;;;;;;;-11.91;100.00;99704.59;4982522;28;20050;-88
2024/01/21 00:38:50;;;;;;;1.20;1.20;;;;;;;-11.98;100.00;99704.06;4999549;28;20479;-87
2024/01/21 00:41:17;;;;;;;1.50;1.40;;;;;;;-11.88;100.00;99714.81;4996733;28;20097;-88
2024/01/21 00:43:44;;;;;;;1.38;1.27;;;;;;;-11.90;100.00;99717.53;4995925;28;20046;-87
2024/01/21 00:46:12;;;;;;;1.50;1.40;;;;;;;-11.92;100.00;99723.72;4996037;28;20530;-88
2024/01/21 00:48:41;;;;;;;1.40;1.30;;;;;;;-12.03;100.00;99713.91;4978617;28;20053;-88
2024/01/21 00:51:09;;;;;;;1.20;1.20;;;;;;;-11.93;100.00;99730.69;4996285;28;20046;-89
2024/01/21 00:53:37;;;;;;;1.40;1.30;;;;;;;-12.06;100.00;99735.72;4996398;28;20050;-88
2024/01/21 00:56:04;;;;;;;1.45;1.35;;;;;;;-12.29;100.00;99725.75;4995813;28;20545;-88
2024/01/21 00:58:31;;;;;;;1.10;1.10;;;;;;;-12.42;100.00;99722.94;4978895;28;20139;-88
2024/01/21 01:00:59;;;;;;;1.45;1.35;;;;;;;-12.28;100.00;99740.41;4995866;28;20069;-89
2024/01/21 01:03:26;;;;;;;1.45;1.35;;;;;;;-12.33;100.00;99732.88;4995675;28;20466;-88
2024/01/21 01:05:56;;;;;;;1.33;1.23;;;;;;;-12.34;100.00;99739.00;4996304;28;20502;-87
2024/01/21 01:08:24;;;;;;;1.40;1.30;;;;;;;-12.30;100.00;99752.69;4978502;28;20141;-86
2024/01/21 01:10:51;;;;;;;1.20;1.20;;;;;;;-12.24;100.00;99755.78;4995810;28;20148;-86
2024/01/21 01:13:21;;;;;;;1.40;1.30;;;;;;;-12.25;100.00;99768.91;4974576;28;20059;-87
2024/01/21 01:15:48;;;;;;;1.27;1.20;;;;;;;-12.23;100.00;99765.28;4975108;28;20054;-87
2024/01/21 01:18:16;;;;;;;1.10;1.10;;;;;;;-12.14;100.00;99763.13;4975960;28;20516;-88
2024/01/21 01:20:44;;;;;;;1.40;1.30;;;;;;;-12.30;100.00;99761.34;4975763;28;20062;-88
2024/01/21 01:23:11;;;;;;;1.52;1.42;;;;;;;-12.28;100.00;99780.31;4976060;28;20422;-88
2024/01/21 01:25:39;;;;;;;1.15;1.15;;;;;;;-12.31;100.00;99784.81;4976154;28;20099;-86
2024/01/21 01:28:06;;;;;;;1.40;1.30;;;;;;;-12.41;100.00;99776.66;4976109;28;20070;-87
2024/01/21 01:30:33;;;;;;;1.50;1.40;;;;;;;-12.54;100.00;99788.63;4976033;28;20518;-86
2024/01/21 01:33:00;;;;;;;1.45;1.35;;;;;;;-12.51;100.00;99786.69;4962513;28;20090;-87
2024/01/21 01:35:28;;;;;;;1.40;1.30;;;;;;;-12.56;100.00;99793.88;4956531;28;20420;-88
2024/01/21 01:37:55;;;;;;;1.50;1.40;;;;;;;-12.56;100.00;99793.88;4956336;28;20420;-87
2024/01/21 01:40:23;;;;;;;1.52;1.42;;;;;;;-12.62;100.00;99799.41;4956371;29;20087;-87
2024/01/21 01:42:57;;;;;;;1.50;1.40;;;;;;;-12.65;100.00;99794.38;4957033;28;20047;-88
2024/01/21 01:45:25;;;;;;;1.20;1.20;;;;;;;-12.62;100.00;99803.78;4956532;28;20058;-87
2024/01/21 01:47:53;;;;;;;1.40;1.30;;;;;;;-12.71;100.00;99790.34;4954700;28;20126;-87
2024/01/21 01:50:21;;;;;;;1.70;1.60;;;;;;;-12.71;100.00;99797.28;4973927;28;20049;-87
2024/01/21 01:52:49;;;;;;;1.60;1.50;;;;;;;-12.72;100.00;99804.25;4975861;28;20058;-87
2024/01/21 01:55:17;;;;;;;1.60;1.50;;;;;;;-12.59;100.00;99819.22;4974423;28;20050;-87
2024/01/21 01:57:46;;;;;;;1.27;1.20;;;;;;;-12.54;100.00;99814.63;4975259;28;20054;-87
2024/01/21 02:00:14;;;;;;;1.42;1.33;;;;;;;-12.64;100.00;99803.84;4958344;28;20055;-87
2024/01/21 02:02:42;;;;;;;1.80;1.70;;;;;;;-12.60;100.00;99807.97;4975746;28;20495;-86
2024/01/21 02:05:10;;;;;;;1.50;1.40;;;;;;;-12.73;100.00;99807.75;4974962;28;20050;-87
2024/01/21 02:07:40;;;;;;;1.45;1.35;;;;;;;-12.95;100.00;99801.97;4974577;28;20051;-87
2024/01/21 02:10:10;;;;;;;1.75;1.65;;;;;;;-12.97;100.00;99819.38;4975194;28;20050;-86
2024/01/21 02:12:42;;;;;;;1.70;1.60;;;;;;;-12.96;100.00;99808.06;4957239;28;20062;-86
2024/01/21 02:15:12;;;;;;;1.70;1.60;;;;;;;-12.83;100.00;99826.50;4958044;28;20047;-88
2024/01/21 02:17:40;;;;;;;1.40;1.30;;;;;;;-12.98;100.00;99836.75;4975310;28;20051;-86
2024/01/21 02:20:09;;;;;;;1.50;1.40;;;;;;;-13.08;100.00;99832.06;4975475;28;20065;-86
2024/01/21 02:22:40;;;;;;;1.60;1.50;;;;;;;-13.12;100.00;99827.00;4975740;28;20050;-86
2024/01/21 02:25:08;;;;;;;1.58;1.48;;;;;;;-13.21;100.00;99848.25;4974980;28;20049;-87
2024/01/21 02:27:38;;;;;;;1.90;1.80;;;;;;;-13.30;100.00;99853.06;4926145;28;20050;-86
2024/01/21 02:30:06;;;;;;;1.50;1.40;;;;;;;-13.44;100.00;99853.72;4956032;28;20517;-87
2024/01/21 02:32:33;;;;;;;1.98;1.88;;;;;;;-13.54;100.00;99861.94;4954335;29;20397;-87
2024/01/21 02:35:01;;;;;;;1.60;1.50;;;;;;;-13.65;100.00;99864.19;4955296;28;20600;-87
2024/01/21 02:37:30;;;;;;;1.40;1.30;;;;;;;-13.65;100.00;99864.19;4955375;28;20513;-87
2024/01/21 02:39:57;;;;;;;1.60;1.50;;;;;;;-13.78;100.00;99870.84;4955495;28;20063;-88
2024/01/21 02:42:26;;;;;;;1.42;1.33;;;;;;;-13.80;100.00;99870.94;4957346;28;20126;-86
2024/01/21 02:44:54;;;;;;;1.70;1.60;;;;;;;-13.70;100.00;99871.34;4974299;28;20050;-86
2024/01/21 02:47:24;;;;;;;1.67;1.58;;;;;;;-13.77;100.00;99865.59;4974112;28;20051;-86
2024/01/21 02:49:52;;;;;;;1.60;1.50;;;;;;;-13.79;100.00;99895.13;4974295;28;20105;-86
2024/01/21 02:52:19;;;;;;;1.80;1.70;;;;;;;-13.77;100.00;99895.91;4974153;28;20079;-86
2024/01/21 02:54:46;;;;;;;1.60;1.50;;;;;;;-13.78;100.00;99896.81;4974377;28;20053;-86
2024/01/21 02:57:14;;;;;;;1.67;1.58;;;;;;;-13.87;100.00;99892.03;4973408;28;20058;-87
2024/01/21 02:59:41;;;;;;;1.80;1.70;;;;;;;-13.94;100.00;99911.41;4973390;28;20129;-87
2024/01/21 03:02:09;;;;;;;1.73;1.63;;;;;;;-13.99;100.00;99904.66;4972977;28;20074;-87
2024/01/21 03:04:36;;;;;;;1.88;1.77;;;;;;;-14.03;100.00;99910.03;4974264;28;20050;-87
2024/01/21 03:07:04;;;;;;;1.80;1.70;;;;;;;-14.07;100.00;99914.53;4974336;28;20097;-87
2024/01/21 03:09:32;;;;;;;1.80;1.70;;;;;;;-14.09;100.00;99913.75;4973914;28;20182;-87
2024/01/21 03:11:59;;;;;;;1.80;1.70;;;;;;;-14.07;100.00;99919.72;4974043;28;20050;-87
2024/01/21 03:14:26;;;;;;;1.98;1.88;;;;;;;-14.09;100.00;99923.28;4972311;28;20062;-86
2024/01/21 03:16:53;;;;;;;1.70;1.60;;;;;;;-14.18;100.00;99927.09;4973903;28;20054;-86
2024/01/21 03:19:20;;;;;;;1.95;1.85;;;;;;;-14.16;100.00;99937.41;4974189;28;20459;-87
2024/01/21 03:21:48;;;;;;;1.98;1.88;;;;;;;-14.34;100.00;99932.09;4974141;28;20051;-86
2024/01/21 03:24:15;;;;;;;1.58;1.48;;;;;;;-14.39;100.00;99938.41;4972947;28;20055;-86
2024/01/21 03:26:42;;;;;;;1.88;1.77;;;;;;;-14.44;100.00;99944.59;4954487;29;20067;-86
2024/01/21 03:29:10;;;;;;;1.90;1.80;;;;;;;-14.44;100.00;99951.53;4953320;29;20051;-86
2024/01/21 03:31:37;;;;;;;1.63;1.52;;;;;;;-14.48;100.00;99957.75;4953648;29;20051;-87
2024/01/21 03:34:05;;;;;;;1.65;1.55;;;;;;;-14.61;100.00;99943.66;4954794;28;20489;-87
2024/01/21 03:36:33;;;;;;;1.80;1.70;;;;;;;-14.56;100.00;99965.03;4954374;28;20142;-86
2024/01/21 03:39:00;;;;;;;1.67;1.58;;;;;;;-14.78;100.00;99928.78;4958933;28;20039;-90
2024/01/21 03:41:27;;;;;;;2.20;2.00;;;;;;;-14.65;100.00;99954.16;4974095;28;20054;-87
2024/01/21 03:43:56;;;;;;;1.88;1.77;;;;;;;-14.67;100.00;99955.13;4977940;28;20054;-87
2024/01/21 03:46:24;;;;;;;1.63;1.52;;;;;;;-14.61;100.00;99967.81;4978012;28;20170;-87
2024/01/21 03:48:51;;;;;;;1.70;1.60;;;;;;;-14.69;100.00;99967.28;4978393;28;20138;-87
2024/01/21 03:51:19;;;;;;;1.70;1.60;;;;;;;-14.73;100.00;99964.00;4987958;28;20109;-91
2024/01/21 03:53:46;;;;;;;1.80;1.70;;;;;;;-14.80;100.00;99987.63;4988857;28;20061;-89
2024/01/21 03:56:20;;;;;;;1.88;1.77;;;;;;;-14.79;100.00;99977.16;4979140;28;20573;-88
2024/01/21 03:58:48;;;;;;;1.70;1.60;;;;;;;-14.82;100.00;99984.22;4978546;28;20077;-87
2024/01/21 04:01:15;;;;;;;1.63;1.52;;;;;;;-15.04;100.00;99973.84;4978410;28;20065;-89
2024/01/21 04:03:42;;;;;;;1.48;1.38;;;;;;;-14.96;100.00;99990.81;4977740;28;20495;-87
2024/01/21 04:06:10;;;;;;;1.75;1.65;;;;;;;-15.05;100.00;99987.72;4977785;28;20419;-89
2024/01/21 04:08:38;;;;;;;1.65;1.55;;;;;;;-15.07;100.00;100003.31;4977335;28;20114;-89
2024/01/21 04:11:05;;;;;;;1.90;1.80;;;;;;;-15.22;100.00;100006.47;4977587;28;20063;-89
2024/01/21 04:13:33;;;;;;;1.60;1.50;;;;;;;-15.13;100.00;100006.97;4989280;28;20101;-88
2024/01/21 04:16:00;;;;;;;2.00;1.90;;;;;;;-15.33;100.00;99992.19;4979175;28;20052;-88
2024/01/21 04:18:27;;;;;;;1.88;1.77;;;;;;;-15.25;100.00;100004.00;4979337;28;20500;-88
2024/01/21 04:20:55;;;;;;;1.73;1.63;;;;;;;-15.15;100.00;100023.50;4996357;28;20086;-88
2024/01/21 04:23:22;;;;;;;1.67;1.58;;;;;;;-15.16;100.00;100021.81;4996625;28;20072;-87
2024/01/21 04:25:49;;;;;;;1.92;1.83;;;;;;;-15.21;100.00;100023.72;4996500;28;20511;-87
2024/01/21 04:28:17;;;;;;;1.92;1.83;;;;;;;-15.26;100.00;100030.78;4996443;28;20058;-87
2024/01/21 04:30:45;;;;;;;1.80;1.70;;;;;;;-15.21;100.00;100047.03;4996323;28;20054;-87
2024/01/21 04:33:12;;;;;;;1.77;1.67;;;;;;;-15.30;100.00;100037.84;4998436;28;20504;-86
2024/01/21 04:35:40;;;;;;;1.63;1.52;;;;;;;-15.14;100.00;100038.09;4964920;28;20046;-87
2024/01/21 04:38:07;;;;;;;1.85;1.75;;;;;;;-15.17;100.00;100030.47;4980540;28;20050;-88
2024/01/21 04:40:35;;;;;;;1.52;1.42;;;;;;;-15.11;100.00;100054.41;4996155;28;20059;-88
2024/01/21 04:43:02;;;;;;;1.88;1.77;;;;;;;-15.18;100.00;100045.16;4979116;28;20085;-89
2024/01/21 04:45:29;;;;;;;1.77;1.67;;;;;;;-15.25;100.00;100051.47;4997419;28;20050;-87
2024/01/21 04:47:57;;;;;;;1.80;1.70;;;;;;;-15.18;100.00;100070.22;5003000;28;20077;-88
2024/01/21 04:50:24;;;;;;;1.80;1.70;;;;;;;-15.21;100.00;100062.56;4988794;28;20101;-88
2024/01/21 04:52:51;;;;;;;1.73;1.63;;;;;;;-15.08;100.00;100063.81;5001608;28;20042;-90
2024/01/21 04:55:19;;;;;;;1.90;1.80;;;;;;;-15.06;100.00;100072.38;4999604;28;20054;-88
2024/01/21 04:57:46;;;;;;;1.80;1.70;;;;;;;-15.03;100.00;100067.06;4996347;28;20109;-88
2024/01/21 05:00:14;;;;;;;1.67;1.58;;;;;;;-14.91;100.00;100084.75;4996604;28;20085;-87
2024/01/21 05:02:41;;;;;;;1.90;1.80;;;;;;;-15.11;100.00;100082.88;4996418;28;20042;-89
2024/01/21 05:05:09;;;;;;;2.30;2.10;;;;;;;-15.09;100.00;100095.75;4997155;28;20133;-88
2024/01/21 05:07:36;;;;;;;1.90;1.80;;;;;;;-15.27;100.00;100086.09;4998192;28;20050;-89
2024/01/21 05:10:08;;;;;;;1.92;1.83;;;;;;;-15.23;100.00;100105.81;4779885;28;10000513;-88
2024/01/21 05:12:39;;;;;;;1.80;1.70;;;;;;;-15.40;100.00;100089.09;4994256;28;20256;-86
2024/01/21 05:15:06;;;;;;;1.90;1.80;;;;;;;-15.51;100.00;100089.50;4993190;28;20053;-86
2024/01/21 05:17:34;;;;;;;1.98;1.88;;;;;;;-15.46;100.00;100104.88;4991828;28;20424;-87
2024/01/21 05:20:03;;;;;;;1.95;1.85;;;;;;;-15.46;100.00;100115.22;4992033;28;20092;-86
2024/01/21 05:22:30;;;;;;;2.00;1.90;;;;;;;-15.43;100.00;100116.84;4991261;28;20142;-86
2024/01/21 05:24:58;;;;;;;1.80;1.70;;;;;;;-15.46;100.00;100110.03;4974530;28;20060;-86
2024/01/21 05:27:26;;;;;;;1.77;1.67;;;;;;;-15.58;100.00;100115.63;4992047;28;20419;-86
2024/01/21 05:29:53;;;;;;;2.05;1.92;;;;;;;-15.55;100.00;100138.81;4975306;28;20054;-86
2024/01/21 05:32:21;;;;;;;1.83;1.73;;;;;;;-15.66;100.00;100140.94;4958825;28;20050;-87
2024/01/21 05:34:49;;;;;;;1.90;1.80;;;;;;;-15.79;100.00;100143.97;4974189;28;20050;-87
2024/01/21 05:37:16;;;;;;;1.70;1.60;;;;;;;-15.76;100.00;100164.56;4991513;28;20058;-87
2024/01/21 05:39:46;;;;;;;1.60;1.50;;;;;;;-15.84;100.00;100163.97;4991405;28;20066;-86
2024/01/21 05:42:14;;;;;;;1.92;1.83;;;;;;;-15.90;100.00;100161.56;4991305;28;20081;-88
2024/01/21 05:44:44;;;;;;;1.73;1.63;;;;;;;-15.98;100.00;100176.47;4958306;28;20149;-87
2024/01/21 05:47:14;;;;;;;1.90;1.80;;;;;;;-15.87;100.00;100184.78;4973589;28;20061;-90
2024/01/21 05:49:44;;;;;;;1.85;1.75;;;;;;;-15.90;100.00;100169.31;4974498;28;20081;-90
2024/01/21 05:52:11;;;;;;;2.10;1.95;;;;;;;-15.78;100.00;100171.50;4992188;28;20554;-90
2024/01/21 05:54:42;;;;;;;1.85;1.75;;;;;;;-15.76;100.00;100166.31;4974348;28;20120;-88
2024/01/21 05:57:09;;;;;;;1.77;1.67;;;;;;;-15.64;100.00;100190.91;4991269;28;20050;-87
2024/01/21 05:59:36;;;;;;;1.90;1.80;;;;;;;-15.37;100.00;100209.84;4990826;28;20058;-88
2024/01/21 06:02:10;;;;;;;1.70;1.60;;;;;;;-15.42;100.00;100209.97;4972752;28;20066;-88
2024/01/21 06:04:40;;;;;;;2.00;1.90;;;;;;;-15.62;100.00;100189.97;4991735;28;20110;-89
2024/01/21 06:07:15;;;;;;;2.28;2.08;;;;;;;-15.64;100.00;100209.88;4991493;28;20050;-86
2024/01/21 06:09:47;;;;;;;2.10;1.90;;;;;;;-15.69;100.00;100216.13;4990425;28;20144;-86
2024/01/21 06:12:14;;;;;;;1.88;1.77;;;;;;;-15.78;100.00;100187.03;4990641;28;20074;-89
2024/01/21 06:14:44;;;;;;;1.98;1.88;;;;;;;-15.80;100.00;100180.22;4974294;28;20480;-88
2024/01/21 06:17:15;;;;;;;1.80;1.70;;;;;;;-15.87;100.00;100187.34;4973300;28;20618;-86
2024/01/21 06:19:45;;;;;;;1.92;1.83;;;;;;;-15.71;100.00;100220.50;4992021;28;20059;-88
2024/01/21 06:22:17;;;;;;;1.85;1.75;;;;;;;-15.63;100.00;100234.84;4957057;28;20062;-88
2024/01/21 06:24:44;;;;;;;1.98;1.88;;;;;;;-15.56;100.00;100232.91;4990971;28;20084;-87
2024/01/21 06:27:12;;;;;;;1.90;1.80;;;;;;;-15.76;100.00;100202.53;4941969;28;20071;-86
2024/01/21 06:29:49;;;;;;;1.95;1.85;;;;;;;-15.59;100.00;100240.78;4974325;28;20133;-89
2024/01/21 06:32:19;;;;;;;1.70;1.60;;;;;;;-15.50;100.00;100250.81;4961475;28;20054;-89
2024/01/21 06:34:47;;;;;;;1.95;1.85;;;;;;;-15.47;99.96;100232.59;4973491;28;20043;-87
2024/01/21 06:37:16;;;;;;;2.08;1.92;;;;;;;-15.41;99.79;100229.81;4991873;28;20161;-89
2024/01/21 06:39:44;;;;;;;1.88;1.77;;;;;;;-15.22;99.58;100249.91;4990896;28;20054;-86
2024/01/21 06:42:30;;;;;;;2.40;2.20;;;;;;;-15.12;99.44;100259.91;4990578;28;20066;-87
2024/01/21 06:44:57;;;;;;;1.98;1.88;;;;;;;-15.10;99.13;100265.03;4990401;28;20054;-86
2024/01/21 06:47:29;;;;;;;2.00;1.90;;;;;;;-14.98;98.90;100266.38;4990048;28;20046;-86
2024/01/21 06:49:56;;;;;;;2.13;1.98;;;;;;;-14.90;98.80;100262.59;4973445;28;20054;-88
2024/01/21 06:52:24;;;;;;;1.90;1.80;;;;;;;-14.72;98.33;100262.88;4990985;28;20051;-86
2024/01/21 06:54:53;;;;;;;2.30;2.10;;;;;;;-14.65;98.08;100275.56;4990424;28;20338;-88
2024/01/21 06:57:21;;;;;;;1.63;1.52;;;;;;;-14.64;97.83;100276.41;4958544;28;20054;-87
2024/01/21 06:59:54;;;;;;;1.83;1.73;;;;;;;-14.59;97.59;100265.88;5348006;23;20059;-90
2024/01/21 07:02:23;;;;;;;1.60;1.50;;;;;;;-14.35;97.53;100290.88;4638740;28;9999662;-90
2024/01/21 07:04:53;;;;;;;1.92;1.83;;;;;;;-14.36;97.06;100285.75;4989684;28;20041;-88
2024/01/21 07:07:21;;;;;;;2.22;2.03;;;;;;;-14.38;96.63;100283.19;5002851;28;20045;-89
2024/01/21 07:09:48;;;;;;;2.00;1.90;;;;;;;-14.25;96.67;100279.28;4960356;28;20046;-88
2024/01/21 07:12:16;;;;;;;2.03;1.92;;;;;;;-14.10;96.53;100293.44;4992245;28;20128;-85
2024/01/21 07:14:44;;;;;;;1.92;1.83;;;;;;;-14.07;96.22;100264.78;4983181;28;20100;-86
2024/01/21 07:17:15;;;;;;;1.85;1.75;;;;;;;-13.85;95.89;100269.97;5010464;28;20050;-88
2024/01/21 07:19:52;;;;;;;1.70;1.60;;;;;;;-13.58;95.66;100286.22;4979398;28;20583;-89
2024/01/21 07:22:20;;;;;;;1.88;1.77;;;;;;;-13.36;95.29;100307.00;4977253;28;20056;-89
2024/01/21 07:25:04;;;;;;;1.63;1.52;;;;;;;-13.37;94.78;100294.06;5008269;28;20060;-87
2024/01/21 07:27:34;;;;;;;2.00;1.90;;;;;;;-13.26;94.57;100302.25;5004599;28;20062;-85
2024/01/21 07:30:06;;;;;;;1.90;1.80;;;;;;;-13.13;94.14;100302.59;5004020;28;20075;-87
2024/01/21 07:32:33;;;;;;;1.75;1.65;;;;;;;-12.95;93.63;100317.44;4985652;28;20045;-86
2024/01/21 07:35:04;;;;;;;1.95;1.85;;;;;;;-13.02;93.18;100307.34;5014272;28;20406;-86
2024/01/21 07:37:33;;;;;;;2.20;2.00;;;;;;;-12.99;92.80;100315.00;5015823;28;20445;-86
2024/01/21 07:40:06;;;;;;;2.17;1.98;;;;;;;-12.70;92.70;100332.84;4991638;28;20045;-84
2024/01/21 07:42:43;;;;;;;1.90;1.80;;;;;;;-12.67;91.86;100329.28;4984605;28;20050;-85
2024/01/21 07:45:15;;;;;;;1.75;1.65;;;;;;;-12.67;90.80;100337.91;4985883;28;20057;-85
2024/01/21 07:47:45;;;;;;;1.80;1.70;;;;;;;-12.74;89.97;100328.69;5013386;28;20525;-86
2024/01/21 07:50:12;;;;;;;2.30;2.10;;;;;;;-12.52;88.89;100343.38;4977810;28;20518;-87
2024/01/21 07:52:42;;;;;;;2.28;2.08;;;;;;;-12.11;87.60;100338.13;5010343;28;20148;-87
2024/01/21 07:55:10;;;;;;;1.90;1.80;;;;;;;-11.90;85.87;100350.19;4974349;28;20049;-86
2024/01/21 07:57:40;;;;;;;2.20;2.00;;;;;;;-11.76;84.22;100341.72;5013203;28;20056;-84
2024/01/21 08:00:08;;;;;;;1.90;1.80;;;;;;;-11.73;82.86;100336.38;4985015;28;20391;-84
2024/01/21 08:02:35;;;;;;;1.90;1.80;;;;;;;-11.49;82.23;100344.81;4986638;28;20054;-85
2024/01/21 08:05:06;;;;;;;2.30;2.10;;;;;;;-11.38;81.32;100321.69;4976344;28;20395;-87
2024/01/21 08:07:33;;;;;;;1.98;1.88;;;;;;;-11.08;80.20;100334.19;4973974;28;20046;-92
2024/01/21 08:10:04;;;;;;;1.77;1.67;;;;;;;-10.84;79.66;100336.50;4972599;28;20097;-86
2024/01/21 08:12:32;;;;;;;2.30;2.10;;;;;;;-10.50;78.86;100336.50;4970064;28;20046;-85
2024/01/21 08:15:10;;;;;;;1.85;1.75;;;;;;;-10.04;77.77;100357.56;4957782;28;20097;-85
2024/01/21 08:17:38;;;;;;;1.63;1.52;;;;;;;-9.72;76.81;100349.81;4991073;28;20077;-86
2024/01/21 08:20:07;;;;;;;1.73;1.63;;;;;;;-9.54;75.59;100337.50;4973734;28;20479;-84
2024/01/21 08:22:39;;;;;;;2.05;1.92;;;;;;;-9.16;74.70;100365.94;4993145;28;20561;-85
2024/01/21 08:25:08;;;;;;;1.77;1.67;;;;;;;-8.93;73.52;100358.56;5001441;28;20079;-87
2024/01/21 08:27:39;;;;;;;1.63;1.52;;;;;;;-8.86;71.75;100359.88;4994293;28;20046;-85
2024/01/21 08:30:08;;;;;;;1.80;1.70;;;;;;;-8.74;70.95;100365.25;5000344;28;20123;-86
2024/01/21 08:32:36;;;;;;;1.60;1.50;;;;;;;-8.45;70.13;100354.03;4977922;28;20068;-87
2024/01/21 08:35:05;;;;;;;1.80;1.70;;;;;;;-8.14;69.35;100353.00;4986080;28;20046;-86
2024/01/21 08:37:32;;;;;;;1.40;1.30;;;;;;;-7.89;67.75;100349.75;4993446;28;20064;-87
2024/01/21 08:40:06;;;;;;;2.05;1.90;;;;;;;-7.64;66.57;100360.41;4992700;28;20043;-86
2024/01/21 08:42:50;;;;;;;1.50;1.40;;;;;;;-7.52;66.26;100344.84;4971101;28;20046;-87
2024/01/21 08:45:18;;;;;;;1.48;1.38;;;;;;;-7.10;65.76;100359.63;4986074;28;20085;-87
2024/01/21 08:47:46;;;;;;;1.60;1.50;;;;;;;-6.93;64.45;100337.56;4992605;28;20055;-86
2024/01/21 08:50:16;;;;;;;1.52;1.42;;;;;;;-6.85;63.48;100374.66;4980908;28;20050;-85
2024/01/21 08:52:43;;;;;;;1.50;1.40;;;;;;;-6.49;64.16;100357.41;4996328;28;20051;-86
2024/01/21 08:55:11;;;;;;;1.58;1.48;;;;;;;-6.00;62.96;100369.00;4997649;28;20077;-85
2024/01/21 08:57:38;;;;;;;1.80;1.70;;;;;;;-5.60;62.25;100359.16;4977327;28;20096;-86
2024/01/21 09:00:08;;;;;;;1.70;1.60;;;;;;;-3.84;60.65;100362.91;4977396;28;20096;-87
2024/01/21 09:02:39;;;;;;;1.35;1.25;;;;;;;-3.82;58.58;100360.97;4977947;28;20383;-85
2024/01/21 09:05:09;;;;;;;1.27;1.20;;;;;;;-4.37;57.82;100348.44;4984303;28;20037;-89
2024/01/21 09:07:37;;;;;;;1.40;1.30;;;;;;;-4.62;57.71;100367.88;4976796;28;20065;-88
2024/01/21 09:10:05;;;;;;;1.40;1.30;;;;;;;-4.61;57.13;100363.44;4981363;28;20039;-90
2024/01/21 09:12:34;;;;;;;1.58;1.48;;;;;;;-4.58;56.95;100348.25;4981435;28;20438;-90
2024/01/21 09:15:05;;;;;;;1.50;1.40;;;;;;;-4.60;56.99;100357.22;4981499;28;20474;-89
2024/01/21 09:17:36;;;;;;;1.30;1.20;;;;;;;-4.41;56.07;100372.50;4977036;28;20423;-88
2024/01/21 09:20:04;;;;;;;1.40;1.30;;;;;;;-4.39;55.57;100371.41;4972134;28;20046;-87
2024/01/21 09:22:35;;;;;;;1.55;1.45;;;;;;;-4.66;54.88;100361.16;4969164;28;20112;-88
2024/01/21 09:25:06;;;;;;;1.80;1.70;;;;;;;-4.96;54.72;100364.25;4965527;28;20413;-86
2024/01/21 09:27:33;;;;;;;1.25;1.20;;;;;;;-5.07;54.30;100358.91;4969403;28;20516;-90
2024/01/21 09:30:01;;;;;;;1.50;1.40;;;;;;;-4.96;54.78;100387.97;4968035;28;20038;-88
2024/01/21 09:32:31;;;;;;;1.60;1.50;;;;;;;-4.66;54.97;100391.91;4968840;28;20047;-86
2024/01/21 09:34:59;;;;;;;1.35;1.25;;;;;;;-4.38;54.20;100378.38;4962989;28;20051;-87
2024/01/21 09:37:27;;;;;;;1.63;1.52;;;;;;;-3.88;53.12;100401.03;4954153;28;20085;-89
2024/01/21 09:39:56;;;;;;;1.55;1.45;;;;;;;-3.79;53.21;100364.22;4948250;28;20104;-88
2024/01/21 09:42:26;;;;;;;1.60;1.50;;;;;;;-3.57;52.89;100378.38;4975147;28;20054;-83
2024/01/21 09:44:53;;;;;;;1.55;1.45;;;;;;;-3.65;51.85;100384.25;4981996;28;20046;-86
2024/01/21 09:47:21;;;;;;;1.63;1.52;;;;;;;-3.47;51.55;100402.25;4995041;28;20050;-85
2024/01/21 09:49:49;;;;;;;1.50;1.40;;;;;;;-3.42;51.58;100384.25;4981025;28;20048;-89
2024/01/21 09:52:18;;;;;;;1.50;1.40;;;;;;;-3.42;51.15;100402.72;4974170;28;20531;-89
2024/01/21 09:54:46;;;;;;;1.75;1.65;;;;;;;-3.36;51.15;100402.25;4983795;28;20053;-87
2024/01/21 09:57:14;;;;;;;1.77;1.67;;;;;;;-3.06;50.39;100412.19;4972152;28;20049;-86
2024/01/21 09:59:47;;;;;;;1.73;1.63;;;;;;;-2.86;50.26;100414.06;4952220;28;20054;-88
2024/01/21 10:02:16;;;;;;;1.85;1.75;;;;;;;-2.60;50.62;100416.41;5005696;28;20141;-87
2024/01/21 10:04:44;;;;;;;1.83;1.73;;;;;;;-2.50;49.29;100382.97;4985410;28;20042;-87
2024/01/21 10:07:13;;;;;;;1.75;1.65;;;;;;;-2.17;48.58;100401.44;4998472;28;20054;-86
2024/01/21 10:09:40;;;;;;;1.70;1.60;;;;;;;-2.48;48.76;100411.91;5003382;28;20050;-86
2024/01/21 10:12:08;;;;;;;2.28;2.08;;;;;;;-2.57;48.12;100399.44;4978725;28;20047;-86
2024/01/21 10:14:35;;;;;;;1.98;1.88;;;;;;;-3.12;47.50;100405.56;4979854;28;20043;-87
2024/01/21 10:17:06;;;;;;;1.48;1.38;;;;;;;-3.24;48.27;100393.38;4985590;28;20078;-87
2024/01/21 10:19:34;;;;;;;1.80;1.70;;;;;;;-2.94;47.83;100413.81;4981508;28;20077;-86
2024/01/21 10:22:10;;;;;;;2.20;2.00;;;;;;;-2.27;47.80;100412.78;4982147;28;20465;-87
2024/01/21 10:24:41;;;;;;;1.80;1.70;;;;;;;-1.78;47.46;100408.63;4972594;28;20058;-87
2024/01/21 10:27:10;;;;;;;2.00;1.90;;;;;;;-1.59;46.49;100412.38;4963082;28;20070;-85
2024/01/21 10:29:42;;;;;;;2.40;2.20;;;;;;;-2.11;45.81;100414.97;4975664;28;20432;-86
2024/01/21 10:32:10;;;;;;;1.90;1.80;;;;;;;-2.29;46.15;100425.28;4975894;28;20138;-88
2024/01/21 10:34:40;;;;;;;1.90;1.80;;;;;;;-2.55;45.98;100426.59;4947183;28;20125;-86
2024/01/21 10:37:08;;;;;;;2.00;1.90;;;;;;;-2.69;46.02;100425.91;4616645;28;9999622;-85
2024/01/21 10:39:37;;;;;;;1.85;1.75;;;;;;;-2.81;46.74;100439.28;4968234;28;20066;-89
2024/01/21 10:42:06;;;;;;;1.75;1.65;;;;;;;-2.70;46.86;100432.16;4967488;28;20065;-91
2024/01/21 10:44:35;;;;;;;2.03;1.90;;;;;;;-2.04;46.25;100439.13;4955473;28;20503;-87
2024/01/21 10:47:04;;;;;;;1.85;1.75;;;;;;;-1.93;45.22;100435.56;4967221;28;20110;-86
2024/01/21 10:49:32;;;;;;;2.00;1.90;;;;;;;-1.83;44.87;100429.38;4983006;28;20046;-86
2024/01/21 10:52:00;;;;;;;1.85;1.75;;;;;;;-2.11;44.33;100411.50;4986772;28;20057;-87
2024/01/21 10:54:28;;;;;;;1.90;1.80;;;;;;;-2.37;44.71;100432.19;4983366;28;20125;-85
2024/01/21 10:56:59;;;;;;;1.88;1.77;;;;;;;-2.37;44.67;100421.59;4943555;28;20061;-85
2024/01/21 10:59:29;;;;;;;1.90;1.80;;;;;;;-2.59;44.50;100435.75;4971723;28;20082;-86
2024/01/21 11:01:58;;;;;;;1.73;1.63;;;;;;;-2.71;44.98;100451.63;4988026;28;20116;-85
2024/01/21 11:04:26;;;;;;;1.90;1.80;;;;;;;-2.85;44.47;100457.19;4988544;28;20573;-86
2024/01/21 11:06:53;;;;;;;1.75;1.65;;;;;;;-3.04;44.80;100455.16;4974801;28;20066;-87
2024/01/21 11:09:22;;;;;;;1.90;1.80;;;;;;;-2.93;45.07;100464.88;4976091;28;20133;-85
2024/01/21 11:11:50;;;;;;;1.65;1.55;;;;;;;-2.76;45.39;100466.16;4929033;28;20042;-85
2024/01/21 11:14:36;;;;;;;1.92;1.83;;;;;;;-2.01;45.10;100449.44;4983089;28;20514;-84
2024/01/21 11:17:05;;;;;;;2.00;1.90;;;;;;;-1.34;44.08;100453.47;4975271;28;20066;-84
2024/01/21 11:19:54;;;;;;;1.73;1.63;;;;;;;-1.54;43.57;100471.06;4968098;28;20506;-84
2024/01/21 11:22:28;;;;;;;2.00;1.90;;;;;;;-1.75;43.61;100474.56;4969675;28;20050;-85
2024/01/21 11:24:55;;;;;;;1.77;1.67;;;;;;;-1.79;43.02;100457.25;4943669;28;20054;-83